createdAt,value
2019-04-25T00:01:42.550Z,0.50
2019-04-25T00:04:12.059Z,0.82
2019-04-25T00:06:39.368Z,0.70
2019-04-25T00:09:09.712Z,0.80
2019-04-25T00:11:37.802Z,0.62
2019-04-25T00:14:05.181Z,0.90
2019-04-25T00:16:33.262Z,1.02
2019-04-25T00:19:01.865Z,0.70
2019-04-25T00:21:32.055Z,0.70
2019-04-25T00:24:07.530Z,0.60
2019-04-25T00:26:36.399Z,0.70
2019-04-25T00:29:04.039Z,0.65
2019-04-25T00:31:31.890Z,0.70
2019-04-25T00:33:59.419Z,0.60
2019-04-25T00:36:26.637Z,0.70
2019-04-25T00:38:53.863Z,0.60
2019-04-25T00:41:21.448Z,0.88
2019-04-25T00:43:49.544Z,0.75
2019-04-25T00:46:17.231Z,0.50
2019-04-25T00:48:44.458Z,0.50
2019-04-25T00:51:11.848Z,0.75
2019-04-25T00:53:39.202Z,0.60
2019-04-25T00:56:06.442Z,0.78
2019-04-25T00:58:45.169Z,0.78
2019-04-25T01:01:14.685Z,0.72
2019-04-25T01:03:43.348Z,0.80
2019-04-25T01:06:12.020Z,0.60
2019-04-25T01:08:39.499Z,0.60
2019-04-25T01:11:06.809Z,1.02
2019-04-25T01:13:34.034Z,0.72
2019-04-25T01:16:03.822Z,0.62
2019-04-25T01:21:54.139Z,0.70
2019-04-25T01:24:21.351Z,0.60
2019-04-25T01:26:49.579Z,0.70
2019-04-25T01:29:16.959Z,0.50
2019-04-25T01:31:44.172Z,0.80
2019-04-25T01:34:14.192Z,0.62
2019-04-25T01:36:44.342Z,1.02
2019-04-25T01:39:15.957Z,0.80
2019-04-25T01:42:01.204Z,0.82
2019-04-25T01:44:34.073Z,0.85
2019-04-25T01:47:01.443Z,0.95
2019-04-25T01:49:28.682Z,0.70
2019-04-25T01:51:57.430Z,0.82
2019-04-25T01:54:25.027Z,0.62
2019-04-25T01:56:53.559Z,0.80
2019-04-25T01:59:21.203Z,0.57
2019-04-25T02:01:48.458Z,0.98
2019-04-25T02:04:15.680Z,0.70
2019-04-25T02:06:43.323Z,0.70
2019-04-25T02:09:13.638Z,0.70
2019-04-25T02:11:48.735Z,1.22
2019-04-25T02:14:15.967Z,0.60
2019-04-25T02:16:43.947Z,0.80
2019-04-25T02:19:11.295Z,0.70
2019-04-25T02:21:38.551Z,0.50
2019-04-25T02:24:05.833Z,0.68
2019-04-25T02:26:34.073Z,0.85
2019-04-25T02:29:01.473Z,0.75
2019-04-25T02:31:28.700Z,0.80
2019-04-25T02:33:57.829Z,0.62
2019-04-25T02:36:24.895Z,0.78
2019-04-25T02:38:52.108Z,0.72
2019-04-25T02:41:19.395Z,0.70
2019-04-25T02:43:46.624Z,0.70
2019-04-25T02:46:21.145Z,0.70
2019-04-25T02:48:50.017Z,0.70
2019-04-25T02:51:18.896Z,0.85
2019-04-25T02:53:47.844Z,0.50
2019-04-25T02:56:30.428Z,0.93
2019-04-25T02:58:44.364Z,0.78
2019-04-25T03:01:19.555Z,0.60
2019-04-25T03:03:44.731Z,0.82
2019-04-25T03:06:11.573Z,0.90
2019-04-25T03:08:38.906Z,0.60
2019-04-25T03:11:07.552Z,1.10
2019-04-25T03:13:35.314Z,1.10
2019-04-25T03:16:06.132Z,0.70
2019-04-25T03:18:34.835Z,0.95
2019-04-25T03:21:13.404Z,0.95
2019-04-25T03:23:36.092Z,0.60
2019-04-25T03:26:04.748Z,0.90
2019-04-25T03:28:33.999Z,0.70
2019-04-25T03:31:02.127Z,0.68
2019-04-25T03:33:30.294Z,1.07
2019-04-25T03:35:57.524Z,1.10
2019-04-25T03:38:25.130Z,1.10
2019-04-25T03:40:53.889Z,0.88
2019-04-25T03:43:21.284Z,0.95
2019-04-25T03:45:48.498Z,0.90
2019-04-25T03:48:15.757Z,0.80
2019-04-25T03:50:44.166Z,0.93
2019-04-25T03:53:12.184Z,1.40
2019-04-25T03:55:40.543Z,0.95
2019-04-25T03:58:10.542Z,0.70
2019-04-25T04:00:36.729Z,0.88
2019-04-25T04:03:06.621Z,0.93
2019-04-25T04:05:34.459Z,0.78
2019-04-25T04:08:03.351Z,0.85
2019-04-25T04:10:31.219Z,0.70
2019-04-25T04:12:58.431Z,1.00
2019-04-25T04:15:25.736Z,0.80
2019-04-25T04:18:00.585Z,0.78
2019-04-25T04:20:35.325Z,0.90
2019-04-25T04:23:20.486Z,0.90
2019-04-25T04:25:48.187Z,0.80
2019-04-25T04:28:16.010Z,0.93
2019-04-25T04:30:43.575Z,1.05
2019-04-25T04:33:22.975Z,1.00
2019-04-25T04:35:41.209Z,1.05
2019-04-25T04:38:08.433Z,1.07
2019-04-25T04:40:36.199Z,0.85
2019-04-25T04:43:04.443Z,1.12
2019-04-25T04:45:31.795Z,1.10
2019-04-25T04:47:59.016Z,0.85
2019-04-25T04:50:26.236Z,1.07
2019-04-25T04:52:54.031Z,0.85
2019-04-25T04:55:21.348Z,1.07
2019-04-25T04:57:48.568Z,1.10
2019-04-25T05:00:16.746Z,0.80
2019-04-25T05:02:53.291Z,1.20
2019-04-25T05:05:34.520Z,0.72
2019-04-25T05:08:03.854Z,0.90
2019-04-25T05:10:31.106Z,1.92
2019-04-25T05:12:58.337Z,1.22
2019-04-25T05:15:25.594Z,1.30
2019-04-25T05:17:54.209Z,1.30
2019-04-25T05:20:22.215Z,0.70
2019-04-25T05:22:49.563Z,1.80
2019-04-25T05:25:17.818Z,1.40
2019-04-25T05:27:59.521Z,1.00
2019-04-25T05:30:17.128Z,0.88
2019-04-25T05:32:45.168Z,1.00
2019-04-25T05:35:14.107Z,1.20
2019-04-25T05:37:41.386Z,1.55
2019-04-25T05:40:08.825Z,1.22
2019-04-25T05:42:49.704Z,1.30
2019-04-25T05:45:19.063Z,0.93
2019-04-25T05:47:47.154Z,1.35
2019-04-25T05:50:15.682Z,0.90
2019-04-25T05:52:43.908Z,1.05
2019-04-25T05:55:12.003Z,1.22
2019-04-25T05:57:47.371Z,1.02
2019-04-25T06:00:09.416Z,1.53
2019-04-25T06:02:36.653Z,1.20
2019-04-25T06:05:05.242Z,1.45
2019-04-25T06:07:33.310Z,1.87
2019-04-25T06:10:10.704Z,1.27
2019-04-25T06:12:39.567Z,1.20
2019-04-25T06:15:06.949Z,1.10
2019-04-25T06:17:35.812Z,1.20
2019-04-25T06:20:06.342Z,1.20
2019-04-25T06:22:53.270Z,0.93
2019-04-25T06:25:24.513Z,1.53
2019-04-25T06:27:58.621Z,1.47
2019-04-25T06:30:24.955Z,2.33
2019-04-25T06:32:53.292Z,2.20
2019-04-25T06:35:21.245Z,1.60
2019-04-25T06:37:48.651Z,1.50
2019-04-25T06:40:16.279Z,1.60
2019-04-25T06:42:46.462Z,1.90
2019-04-25T06:45:15.920Z,1.47
2019-04-25T06:47:44.759Z,1.50
2019-04-25T06:50:11.967Z,1.10
2019-04-25T06:52:39.216Z,1.40
2019-04-25T06:55:06.423Z,1.53
2019-04-25T06:57:34.145Z,1.80
2019-04-25T07:00:01.614Z,1.07
2019-04-25T07:02:28.975Z,1.20
2019-04-25T07:04:56.236Z,1.33
2019-04-25T07:07:25.625Z,1.00
2019-04-25T07:09:53.520Z,0.70
2019-04-25T07:12:23.613Z,0.87
2019-04-25T07:14:49.879Z,0.80
2019-04-25T07:17:17.096Z,1.00
2019-04-25T07:19:44.311Z,0.90
2019-04-25T07:22:11.695Z,0.90
2019-04-25T07:24:38.927Z,0.70
2019-04-25T07:27:13.752Z,1.00
2019-04-25T07:29:45.495Z,0.97
2019-04-25T07:32:14.525Z,0.70
2019-04-25T07:34:41.845Z,0.97
2019-04-25T07:37:09.066Z,0.90
2019-04-25T07:39:36.493Z,0.67
2019-04-25T07:42:04.172Z,0.80
2019-04-25T07:44:42.804Z,0.90
2019-04-25T07:47:00.499Z,0.70
2019-04-25T07:49:28.484Z,0.70
2019-04-25T07:51:55.823Z,0.80
2019-04-25T07:54:24.171Z,0.63
2019-04-25T07:56:54.786Z,0.60
2019-04-25T07:59:20.973Z,0.80
2019-04-25T08:01:48.192Z,0.87
2019-04-25T08:04:15.425Z,1.03
2019-04-25T08:06:44.307Z,0.60
2019-04-25T08:09:12.030Z,0.60
2019-04-25T08:11:39.317Z,0.63
2019-04-25T08:14:10.756Z,0.80
2019-04-25T08:16:45.544Z,0.80
2019-04-25T08:19:13.646Z,0.57
2019-04-25T08:21:41.039Z,0.73
2019-04-25T08:24:08.319Z,0.70
2019-04-25T08:26:36.445Z,0.57
2019-04-25T08:29:04.895Z,0.80
2019-04-25T08:31:33.930Z,0.60
2019-04-25T08:34:03.426Z,0.60
2019-04-25T08:36:31.170Z,0.73
2019-04-25T08:38:58.413Z,0.87
2019-04-25T08:41:25.639Z,1.07
2019-04-25T08:43:54.499Z,0.67
2019-04-25T08:46:23.452Z,0.70
2019-04-25T08:49:07.514Z,0.60
2019-04-25T08:51:36.387Z,0.60
2019-04-25T08:54:08.447Z,0.50
2019-04-25T08:56:36.511Z,0.70
2019-04-25T08:59:09.407Z,0.80
2019-04-25T09:01:40.619Z,1.00
2019-04-25T09:04:20.688Z,1.07
2019-04-25T09:06:47.933Z,0.60
2019-04-25T09:09:15.393Z,1.17
2019-04-25T09:11:45.940Z,1.00
2019-04-25T09:14:11.576Z,1.13
2019-04-25T09:16:39.840Z,0.63
2019-04-25T09:19:07.201Z,0.70
2019-04-25T09:21:36.441Z,0.57
2019-04-25T09:24:03.399Z,0.90
2019-04-25T09:26:30.671Z,0.53
2019-04-25T09:28:57.951Z,0.80
2019-04-25T09:31:25.171Z,0.60
2019-04-25T09:33:54.284Z,0.87
2019-04-25T09:36:21.491Z,0.80
2019-04-25T09:38:50.345Z,0.53
2019-04-25T09:41:17.569Z,0.60
2019-04-25T09:43:46.039Z,0.70
2019-04-25T09:46:24.526Z,1.57
2019-04-25T09:48:56.219Z,0.50
2019-04-25T09:51:25.079Z,0.63
2019-04-25T09:54:10.571Z,0.70
2019-04-25T09:56:40.461Z,0.50
2019-04-25T09:59:26.757Z,0.50
2019-04-25T10:01:46.197Z,0.60
2019-04-25T10:04:13.436Z,0.63
2019-04-25T10:06:40.724Z,0.80
2019-04-25T10:09:09.415Z,1.03
2019-04-25T10:11:38.209Z,0.57
2019-04-25T10:14:16.167Z,0.63
2019-04-25T10:16:44.500Z,0.60
2019-04-25T10:19:13.251Z,0.87
2019-04-25T10:21:40.645Z,0.97
2019-04-25T10:24:07.875Z,0.60
2019-04-25T10:26:35.359Z,0.60
2019-04-25T10:29:02.745Z,0.70
2019-04-25T10:31:30.041Z,0.60
2019-04-25T10:33:57.615Z,0.57
2019-04-25T10:36:24.835Z,0.60
2019-04-25T10:39:04.032Z,0.60
2019-04-25T10:41:21.071Z,0.73
2019-04-25T10:43:48.382Z,0.90
2019-04-25T10:46:15.765Z,0.57
2019-04-25T10:48:43.945Z,0.90
2019-04-25T10:51:11.379Z,0.50
2019-04-25T10:53:38.603Z,0.70
2019-04-25T10:56:06.503Z,0.50
2019-04-25T10:58:35.264Z,0.90
2019-04-25T11:01:03.211Z,0.60
2019-04-25T11:03:41.902Z,0.70
2019-04-25T11:06:09.863Z,0.73
2019-04-25T11:08:37.101Z,0.97
2019-04-25T11:11:04.384Z,0.63
2019-04-25T11:13:33.788Z,0.60
2019-04-25T11:16:00.888Z,0.50
2019-04-25T11:18:28.122Z,0.60
2019-04-25T11:20:56.262Z,0.50
2019-04-25T11:23:23.632Z,0.60
2019-04-25T11:25:50.844Z,0.70
2019-04-25T11:28:18.071Z,0.50
2019-04-25T11:30:46.772Z,0.53
2019-04-25T11:33:14.367Z,0.50
2019-04-25T11:35:41.623Z,0.70
2019-04-25T11:38:16.472Z,0.77
2019-04-25T11:40:50.209Z,0.70
2019-04-25T11:43:17.208Z,0.57
2019-04-25T11:45:45.934Z,0.50
2019-04-25T11:48:13.496Z,0.73
2019-04-25T11:50:41.263Z,0.60
2019-04-25T11:53:08.652Z,0.50
2019-04-25T11:55:35.863Z,0.60
2019-04-25T11:58:03.724Z,0.80
2019-04-25T12:00:33.798Z,0.50
2019-04-25T12:03:01.136Z,0.50
2019-04-25T12:05:29.135Z,0.50
2019-04-25T12:07:56.355Z,0.60
2019-04-25T12:10:25.211Z,0.80
2019-04-25T12:12:53.730Z,0.53
2019-04-25T12:15:21.125Z,0.53
2019-04-25T12:17:48.335Z,0.50
2019-04-25T12:20:15.928Z,0.40
2019-04-25T12:22:44.553Z,0.60
2019-04-25T12:25:13.623Z,0.47
2019-04-25T12:27:41.223Z,0.50
2019-04-25T12:30:08.719Z,0.50
2019-04-25T12:32:35.940Z,0.57
2019-04-25T12:35:06.020Z,0.40
2019-04-25T12:37:33.701Z,0.70
2019-04-25T12:40:01.030Z,0.50
2019-04-25T12:42:28.244Z,0.70
2019-04-25T12:45:14.181Z,0.40
2019-04-25T12:47:56.155Z,0.80
2019-04-25T12:50:21.292Z,0.50
2019-04-25T12:52:48.719Z,0.70
2019-04-25T12:55:17.087Z,0.40
2019-04-25T12:57:44.303Z,0.53
2019-04-25T13:00:14.046Z,0.50
2019-04-25T13:02:41.343Z,0.50
2019-04-25T13:05:08.635Z,0.50
2019-04-25T13:07:35.864Z,0.53
2019-04-25T13:10:04.545Z,0.50
2019-04-25T13:12:33.196Z,0.53
2019-04-25T13:15:00.559Z,0.50
2019-04-25T13:17:27.780Z,0.90
2019-04-25T13:19:56.586Z,0.60
2019-04-25T13:22:24.006Z,0.50
2019-04-25T13:24:51.229Z,0.40
2019-04-25T13:27:23.485Z,0.53
2019-04-25T13:29:57.136Z,0.47
2019-04-25T13:32:26.167Z,0.50
2019-04-25T13:34:55.027Z,0.50
2019-04-25T13:37:24.079Z,0.40
2019-04-25T13:39:51.183Z,0.60
2019-04-25T13:42:18.475Z,0.60
2019-04-25T13:44:45.877Z,0.50
2019-04-25T13:47:14.037Z,0.40
2019-04-25T13:49:41.469Z,0.40
2019-04-25T13:52:09.151Z,0.50
2019-04-25T13:54:36.377Z,0.47
2019-04-25T13:57:03.598Z,0.50
2019-04-25T13:59:30.821Z,0.50
2019-04-25T14:01:58.695Z,0.57
2019-04-25T14:04:27.011Z,0.50
2019-04-25T14:06:55.236Z,0.60
2019-04-25T14:09:24.547Z,0.50
2019-04-25T14:11:53.904Z,0.50
2019-04-25T14:14:21.492Z,0.50
2019-04-25T14:17:07.233Z,0.40
2019-04-25T14:19:54.270Z,0.40
2019-04-25T14:22:22.234Z,0.70
2019-04-25T14:24:49.770Z,0.40
2019-04-25T14:27:18.774Z,0.60
2019-04-25T14:29:46.004Z,0.80
2019-04-25T14:32:14.797Z,0.50
2019-04-25T14:34:43.261Z,0.70
2019-04-25T14:37:10.715Z,0.50
2019-04-25T14:39:38.314Z,0.40
2019-04-25T14:42:05.532Z,0.50
2019-04-25T14:44:33.522Z,1.03
2019-04-25T14:47:00.858Z,0.40
2019-04-25T14:49:28.292Z,0.40
2019-04-25T14:51:55.676Z,0.50
2019-04-25T14:54:24.833Z,0.43
2019-04-25T14:57:05.642Z,0.47
2019-04-25T14:59:33.825Z,0.60
2019-04-25T15:02:01.188Z,0.50
2019-04-25T15:04:28.391Z,0.70
2019-04-25T15:06:55.633Z,0.40
2019-04-25T15:09:23.482Z,0.70
2019-04-25T15:11:50.739Z,0.67
2019-04-25T15:14:18.307Z,0.60
2019-04-25T15:16:45.532Z,0.50
2019-04-25T15:19:12.756Z,0.57
2019-04-25T15:21:39.979Z,0.40
2019-04-25T15:24:07.200Z,0.60
2019-04-25T15:26:34.415Z,0.67
2019-04-25T15:29:01.647Z,0.50
2019-04-25T15:31:30.107Z,0.50
2019-04-25T15:33:57.560Z,0.60
2019-04-25T15:36:35.633Z,0.63
2019-04-25T15:39:22.287Z,0.50
2019-04-25T15:41:51.151Z,0.50
2019-04-25T15:44:20.000Z,0.50
2019-04-25T15:46:48.868Z,2.60
2019-04-25T15:49:16.151Z,0.50
2019-04-25T15:51:43.375Z,0.60
2019-04-25T15:54:11.059Z,0.77
2019-04-25T15:56:38.726Z,0.77
2019-04-25T15:59:06.174Z,0.53
2019-04-25T16:01:34.563Z,0.67
2019-04-25T16:04:02.107Z,0.90
2019-04-25T16:06:29.892Z,0.63
2019-04-25T16:09:14.122Z,0.40
2019-04-25T16:11:41.590Z,0.63
2019-04-25T16:14:08.944Z,0.40
2019-04-25T16:16:36.604Z,0.50
2019-04-25T16:19:05.423Z,0.50
2019-04-25T16:24:56.636Z,0.73
2019-04-25T16:27:24.011Z,0.80
2019-04-25T16:29:51.469Z,0.73
2019-04-25T16:32:21.231Z,0.60
2019-04-25T16:34:48.806Z,0.70
2019-04-25T16:37:16.574Z,0.57
2019-04-25T16:39:44.766Z,0.80
2019-04-25T16:42:12.526Z,0.80
2019-04-25T16:44:39.964Z,0.90
2019-04-25T16:47:08.780Z,0.87
2019-04-25T16:49:36.945Z,0.70
2019-04-25T16:52:06.121Z,1.00
2019-04-25T16:54:36.443Z,0.90
2019-04-25T16:57:03.903Z,2.90
2019-04-25T16:59:31.369Z,3.60
2019-04-25T17:01:58.852Z,1.20
2019-04-25T17:04:26.374Z,2.53
2019-04-25T17:06:53.834Z,2.67
2019-04-25T17:09:21.291Z,1.00
2019-04-25T17:11:48.752Z,1.43
2019-04-25T17:14:20.502Z,7.57
2019-04-25T17:17:09.059Z,2.60
2019-04-25T17:19:40.492Z,2.20
2019-04-25T17:22:07.694Z,1.20
2019-04-25T17:24:34.984Z,1.17
2019-04-25T17:27:02.209Z,1.13
2019-04-25T17:29:30.344Z,2.00
2019-04-25T17:32:00.179Z,0.90
2019-04-25T17:34:38.924Z,1.60
2019-04-25T17:37:16.581Z,2.57
2019-04-25T17:39:45.454Z,2.23
2019-04-25T17:42:12.663Z,2.40
2019-04-25T17:44:40.574Z,1.67
2019-04-25T17:47:07.844Z,2.07
2019-04-25T17:49:35.056Z,2.07
2019-04-25T17:52:02.280Z,2.97
2019-04-25T17:54:29.884Z,3.67
2019-04-25T17:56:57.169Z,2.70
2019-04-25T17:59:24.400Z,3.60
2019-04-25T18:01:52.349Z,3.50
2019-04-25T18:04:19.584Z,1.47
2019-04-25T18:06:46.819Z,1.57
2019-04-25T18:09:14.054Z,1.70
2019-04-25T18:11:42.240Z,1.03
2019-04-25T18:14:09.593Z,0.90
2019-04-25T18:16:38.608Z,0.80
2019-04-25T18:19:07.471Z,0.90
2019-04-25T18:21:35.829Z,1.17
2019-04-25T18:24:11.032Z,1.27
2019-04-25T18:26:48.443Z,0.97
2019-04-25T18:29:20.250Z,1.10
2019-04-25T18:31:48.407Z,1.00
2019-04-25T18:34:17.401Z,0.83
2019-04-25T18:36:49.112Z,0.80
2019-04-25T18:39:24.129Z,1.27
2019-04-25T18:42:05.196Z,1.07
2019-04-25T18:44:34.504Z,0.93
2019-04-25T18:47:01.726Z,0.70
2019-04-25T18:49:28.947Z,1.20
2019-04-25T18:51:58.262Z,1.03
2019-04-25T18:54:43.149Z,0.70
2019-04-25T18:57:27.407Z,1.13
2019-04-25T18:59:59.404Z,0.93
2019-04-25T19:02:40.252Z,0.70
2019-04-25T19:05:15.035Z,0.97
2019-04-25T19:07:43.113Z,0.90
2019-04-25T19:10:11.183Z,0.70
2019-04-25T19:12:38.762Z,0.77
2019-04-25T19:15:07.179Z,1.00
2019-04-25T19:17:34.396Z,0.73
2019-04-25T19:20:01.630Z,1.00
2019-04-25T19:22:28.840Z,0.93
2019-04-25T19:24:56.063Z,0.70
2019-04-25T19:27:24.248Z,0.70
2019-04-25T19:29:52.573Z,0.93
2019-04-25T19:32:20.692Z,0.80
2019-04-25T19:34:48.736Z,1.00
2019-04-25T19:37:16.008Z,0.80
2019-04-25T19:39:47.991Z,0.50
2019-04-25T19:42:19.520Z,0.60
2019-04-25T19:44:47.177Z,0.77
2019-04-25T19:47:14.456Z,0.70
2019-04-25T19:49:41.699Z,0.60
2019-04-25T19:52:08.971Z,0.60
2019-04-25T19:54:36.191Z,0.70
2019-04-25T19:57:03.513Z,0.47
2019-04-25T19:59:30.751Z,0.70
2019-04-25T20:01:59.613Z,0.53
2019-04-25T20:04:37.420Z,0.73
2019-04-25T20:07:22.995Z,0.50
2019-04-25T20:09:51.871Z,0.53
2019-04-25T20:12:20.697Z,0.97
2019-04-25T20:14:47.909Z,0.70
2019-04-25T20:17:15.138Z,0.80
2019-04-25T20:19:43.429Z,0.73
2019-04-25T20:22:11.431Z,0.50
2019-04-25T20:24:38.729Z,0.50
2019-04-25T20:27:06.095Z,0.50
2019-04-25T20:29:33.328Z,0.70
2019-04-25T20:32:00.570Z,0.50
2019-04-25T20:34:27.778Z,0.77
2019-04-25T20:36:55.795Z,0.70
2019-04-25T20:39:23.080Z,0.73
2019-04-25T20:41:50.340Z,0.60
2019-04-25T20:44:17.566Z,0.67
2019-04-25T20:46:46.671Z,0.53
2019-04-25T20:49:13.971Z,0.70
2019-04-25T20:51:41.226Z,0.70
2019-04-25T20:54:08.516Z,0.63
2019-04-25T20:56:35.821Z,0.70
2019-04-25T20:59:03.037Z,0.50
2019-04-25T21:01:30.264Z,0.77
2019-04-25T21:03:58.338Z,0.70
2019-04-25T21:06:27.391Z,0.87
2019-04-25T21:09:06.777Z,0.70
2019-04-25T21:11:33.986Z,0.60
2019-04-25T21:14:03.074Z,0.90
2019-04-25T21:16:44.292Z,0.80
2019-04-25T21:19:19.132Z,0.80
2019-04-25T21:21:46.351Z,0.83
2019-04-25T21:24:13.876Z,0.60
2019-04-25T21:26:41.110Z,0.80
2019-04-25T21:29:08.415Z,0.80
2019-04-25T21:31:35.741Z,0.90
2019-04-25T21:34:03.068Z,0.70
2019-04-25T21:36:31.680Z,0.70
2019-04-25T21:38:59.809Z,0.80
2019-04-25T21:41:46.885Z,0.90
2019-04-25T21:44:14.618Z,0.40
2019-04-25T21:46:42.216Z,1.07
2019-04-25T21:49:10.168Z,0.57
2019-04-25T21:51:37.819Z,1.00
2019-04-25T21:54:05.178Z,1.00
2019-04-25T21:56:32.955Z,1.00
2019-04-25T21:59:00.766Z,0.97
2019-04-25T22:01:33.500Z,0.90
2019-04-25T22:04:00.870Z,0.87
2019-04-25T22:06:28.522Z,1.03
2019-04-25T22:08:56.668Z,0.80
2019-04-25T22:11:24.967Z,0.80
2019-04-25T22:13:53.330Z,0.90
2019-04-25T22:16:21.026Z,0.90
2019-04-25T22:18:48.991Z,1.13
2019-04-25T22:21:17.065Z,1.37
2019-04-25T22:23:44.782Z,1.30
2019-04-25T22:26:12.013Z,1.47
2019-04-25T22:28:39.729Z,0.90
2019-04-25T22:31:12.348Z,1.40
2019-04-25T22:33:44.216Z,1.13
2019-04-25T22:36:13.373Z,0.93
2019-04-25T22:38:40.580Z,1.40
2019-04-25T22:41:07.847Z,0.90
2019-04-25T22:43:36.887Z,1.40
2019-04-25T22:46:04.394Z,1.20
2019-04-25T22:48:33.451Z,1.00
2019-04-25T22:51:01.551Z,0.93
2019-04-25T22:53:28.974Z,0.80
2019-04-25T22:55:56.374Z,1.40
2019-04-25T22:58:23.667Z,1.00
2019-04-25T23:00:50.930Z,0.90
2019-04-25T23:03:19.817Z,1.13
2019-04-25T23:05:51.344Z,1.43
2019-04-25T23:08:18.967Z,1.10
2019-04-25T23:10:46.188Z,1.00
2019-04-25T23:13:13.894Z,1.07
2019-04-25T23:15:41.129Z,1.20
2019-04-25T23:18:09.377Z,1.30
2019-04-25T23:20:36.776Z,1.30
2019-04-25T23:23:04.771Z,1.17
2019-04-25T23:25:34.781Z,1.33
2019-04-25T23:28:15.604Z,1.20
2019-04-25T23:30:47.678Z,1.27
2019-04-25T23:33:15.275Z,0.83
2019-04-25T23:35:44.448Z,0.87
2019-04-25T23:38:13.768Z,1.20
2019-04-25T23:40:40.691Z,1.37
2019-04-25T23:43:08.244Z,1.47
2019-04-25T23:45:35.456Z,1.50
2019-04-25T23:48:02.684Z,1.47
2019-04-25T23:50:30.179Z,1.00
2019-04-25T23:52:57.408Z,1.60
2019-04-25T23:55:25.015Z,1.83
2019-04-25T23:57:52.263Z,1.80
